sensor_id;sensor_type;location;lat;lon;timestamp;pressure;altitude;pressure_sealevel;temperature;humidity
61742;BME280;47650;49.848;9.620;2024-03-22T00:00:39;100326.59;;;8.19;100.00
61742;BME280;47650;49.848;9.620;2024-03-22T00:03:05;100321.41;;;8.17;100.00
61742;BME280;47650;49.848;9.620;2024-03-22T00:05:31;100323.75;;;8.09;100.00
61742;BME280;47650;49.848;9.620;2024-03-22T00:07:57;100322.84;;;7.97;100.00
61742;BME280;47650;49.848;9.620;2024-03-22T00:10:22;100326.06;;;7.77;100.00
61742;BME280;47650;49.848;9.620;2024-03-22T00:12:49;100325.88;;;7.80;100.00
61742;BME280;47650;49.848;9.620;2024-03-22T00:15:15;100256.22;;;7.32;100.00
61742;BME280;47650;49.848;9.620;2024-03-22T00:17:45;100324.09;;;7.67;100.00
61742;BME280;47650;49.848;9.620;2024-03-22T00:20:14;100302.63;;;7.48;100.00
61742;BME280;47650;49.848;9.620;2024-03-22T00:22:40;100317.28;;;7.52;100.00
61742;BME280;47650;49.848;9.620;2024-03-22T00:25:06;100321.94;;;7.48;100.00
61742;BME280;47650;49.848;9.620;2024-03-22T00:27:32;100321.31;;;7.45;100.00
61742;BME280;47650;49.848;9.620;2024-03-22T00:29:58;100307.78;;;7.37;100.00
61742;BME280;47650;49.848;9.620;2024-03-22T00:32:23;100277.31;;;7.20;100.00
61742;BME280;47650;49.848;9.620;2024-03-22T00:34:49;100307.06;;;7.34;100.00
61742;BME280;47650;49.848;9.620;2024-03-22T00:37:20;100309.91;;;7.31;100.00
61742;BME280;47650;49.848;9.620;2024-03-22T00:39:45;100309.19;;;7.29;100.00
61742;BME280;47650;49.848;9.620;2024-03-22T00:42:11;100268.69;;;7.05;100.00
61742;BME280;47650;49.848;9.620;2024-03-22T00:44:37;100296.19;;;7.26;100.00
61742;BME280;47650;49.848;9.620;2024-03-22T00:47:03;100287.13;;;7.18;100.00
61742;BME280;47650;49.848;9.620;2024-03-22T00:49:31;100283.66;;;7.17;100.00
61742;BME280;47650;49.848;9.620;2024-03-22T00:51:56;100227.25;;;6.81;100.00
61742;BME280;47650;49.848;9.620;2024-03-22T00:54:22;100277.75;;;7.01;100.00
61742;BME280;47650;49.848;9.620;2024-03-22T00:56:49;100286.72;;;6.98;100.00
61742;BME280;47650;49.848;9.620;2024-03-22T00:59:16;100281.69;;;6.82;100.00
61742;BME280;47650;49.848;9.620;2024-03-22T01:01:41;100293.16;;;6.81;100.00
61742;BME280;47650;49.848;9.620;2024-03-22T01:04:07;100289.56;;;6.69;100.00
61742;BME280;47650;49.848;9.620;2024-03-22T01:06:35;100282.81;;;6.65;100.00
61742;BME280;47650;49.848;9.620;2024-03-22T01:09:01;100187.78;;;6.02;100.00
61742;BME280;47650;49.848;9.620;2024-03-22T01:11:29;100279.09;;;6.55;100.00
61742;BME280;47650;49.848;9.620;2024-03-22T01:13:55;100272.66;;;6.46;100.00
61742;BME280;47650;49.848;9.620;2024-03-22T01:16:20;100269.69;;;6.38;100.00
61742;BME280;47650;49.848;9.620;2024-03-22T01:18:46;100272.75;;;6.32;100.00
61742;BME280;47650;49.848;9.620;2024-03-22T01:21:13;100274.84;;;6.27;100.00
61742;BME280;47650;49.848;9.620;2024-03-22T01:23:38;100276.94;;;6.21;100.00
61742;BME280;47650;49.848;9.620;2024-03-22T01:26:03;100272.34;;;6.11;100.00
61742;BME280;47650;49.848;9.620;2024-03-22T01:28:31;100284.41;;;6.15;100.00
61742;BME280;47650;49.848;9.620;2024-03-22T01:30:59;100275.94;;;6.10;100.00
61742;BME280;47650;49.848;9.620;2024-03-22T01:33:24;100267.31;;;6.08;100.00
61742;BME280;47650;49.848;9.620;2024-03-22T01:35:49;100252.75;;;6.02;100.00
61742;BME280;47650;49.848;9.620;2024-03-22T01:38:17;100238.78;;;5.87;100.00
61742;BME280;47650;49.848;9.620;2024-03-22T01:40:44;100256.91;;;5.92;100.00
61742;BME280;47650;49.848;9.620;2024-03-22T01:43:10;100229.88;;;5.75;100.00
61742;BME280;47650;49.848;9.620;2024-03-22T01:45:38;100256.16;;;5.90;100.00
61742;BME280;47650;49.848;9.620;2024-03-22T01:48:04;100157.53;;;5.28;100.00
61742;BME280;47650;49.848;9.620;2024-03-22T01:50:31;100253.72;;;5.87;100.00
61742;BME280;47650;49.848;9.620;2024-03-22T01:52:57;100230.06;;;5.72;100.00
61742;BME280;47650;49.848;9.620;2024-03-22T01:55:24;100189.84;;;5.43;100.00
61742;BME280;47650;49.848;9.620;2024-03-22T01:57:51;100219.69;;;5.56;100.00
61742;BME280;47650;49.848;9.620;2024-03-22T02:00:19;100219.25;;;5.50;100.00
61742;BME280;47650;49.848;9.620;2024-03-22T02:02:44;100244.56;;;5.65;100.00
61742;BME280;47650;49.848;9.620;2024-03-22T02:05:17;100238.66;;;5.61;100.00
61742;BME280;47650;49.848;9.620;2024-03-22T02:07:47;100217.75;;;5.45;100.00
61742;BME280;47650;49.848;9.620;2024-03-22T02:10:14;100206.97;;;5.36;100.00
61742;BME280;47650;49.848;9.620;2024-03-22T02:12:40;100224.50;;;5.50;100.00
61742;BME280;47650;49.848;9.620;2024-03-22T02:15:06;100207.44;;;5.42;100.00
61742;BME280;47650;49.848;9.620;2024-03-22T02:17:34;100197.69;;;5.30;100.00
61742;BME280;47650;49.848;9.620;2024-03-22T02:20:01;100211.84;;;5.42;100.00
61742;BME280;47650;49.848;9.620;2024-03-22T02:22:29;100218.13;;;5.39;100.00
61742;BME280;47650;49.848;9.620;2024-03-22T02:24:54;100209.50;;;5.37;100.00
61742;BME280;47650;49.848;9.620;2024-03-22T02:27:20;100203.41;;;5.37;100.00
61742;BME280;47650;49.848;9.620;2024-03-22T02:29:46;100207.81;;;5.36;100.00
61742;BME280;47650;49.848;9.620;2024-03-22T02:32:11;100185.25;;;5.19;100.00
61742;BME280;47650;49.848;9.620;2024-03-22T02:34:37;100219.47;;;5.32;100.00
61742;BME280;47650;49.848;9.620;2024-03-22T02:37:03;100229.06;;;5.33;100.00
61742;BME280;47650;49.848;9.620;2024-03-22T02:39:34;100225.00;;;5.27;100.00
61742;BME280;47650;49.848;9.620;2024-03-22T02:42:03;100185.72;;;4.97;100.00
61742;BME280;47650;49.848;9.620;2024-03-22T02:44:28;100204.75;;;5.15;100.00
61742;BME280;47650;49.848;9.620;2024-03-22T02:46:53;100168.19;;;4.83;100.00
61742;BME280;47650;49.848;9.620;2024-03-22T02:49:19;100206.00;;;5.09;100.00
61742;BME280;47650;49.848;9.620;2024-03-22T02:51:44;100179.00;;;4.93;100.00
61742;BME280;47650;49.848;9.620;2024-03-22T02:54:11;100203.53;;;5.06;100.00
61742;BME280;47650;49.848;9.620;2024-03-22T02:56:36;100207.88;;;5.07;100.00
61742;BME280;47650;49.848;9.620;2024-03-22T02:59:01;100207.03;;;5.07;100.00
61742;BME280;47650;49.848;9.620;2024-03-22T03:01:28;100135.16;;;4.65;100.00
61742;BME280;47650;49.848;9.620;2024-03-22T03:03:54;100196.34;;;4.96;100.00
61742;BME280;47650;49.848;9.620;2024-03-22T03:06:19;100199.06;;;4.94;100.00
61742;BME280;47650;49.848;9.620;2024-03-22T03:08:46;100198.88;;;4.97;100.00
61742;BME280;47650;49.848;9.620;2024-03-22T03:11:14;100179.72;;;4.81;100.00
61742;BME280;47650;49.848;9.620;2024-03-22T03:13:40;100176.84;;;4.71;100.00
61742;BME280;47650;49.848;9.620;2024-03-22T03:16:06;100192.75;;;4.82;100.00
61742;BME280;47650;49.848;9.620;2024-03-22T03:18:31;100183.75;;;4.72;100.00
61742;BME280;47650;49.848;9.620;2024-03-22T03:20:58;100192.94;;;4.79;100.00
61742;BME280;47650;49.848;9.620;2024-03-22T03:23:24;100199.06;;;4.80;100.00
61742;BME280;47650;49.848;9.620;2024-03-22T03:25:49;100229.84;;;4.78;100.00
61742;BME280;47650;49.848;9.620;2024-03-22T03:28:14;100199.44;;;4.74;100.00
61742;BME280;47650;49.848;9.620;2024-03-22T03:30:40;100181.78;;;4.61;100.00
61742;BME280;47650;49.848;9.620;2024-03-22T03:33:06;100195.31;;;4.69;100.00
61742;BME280;47650;49.848;9.620;2024-03-22T03:35:31;100200.66;;;4.68;100.00
61742;BME280;47650;49.848;9.620;2024-03-22T03:37:57;100192.69;;;4.69;100.00
61742;BME280;47650;49.848;9.620;2024-03-22T03:40:22;100198.69;;;4.71;100.00
61742;BME280;47650;49.848;9.620;2024-03-22T03:42:53;100198.50;;;4.75;100.00
61742;BME280;47650;49.848;9.620;2024-03-22T03:45:19;100084.25;;;4.10;100.00
61742;BME280;47650;49.848;9.620;2024-03-22T03:47:45;100202.25;;;4.85;100.00
61742;BME280;47650;49.848;9.620;2024-03-22T03:50:13;100202.91;;;4.88;100.00
61742;BME280;47650;49.848;9.620;2024-03-22T03:52:39;100193.16;;;4.90;100.00
61742;BME280;47650;49.848;9.620;2024-03-22T03:55:05;100191.44;;;4.89;100.00
61742;BME280;47650;49.848;9.620;2024-03-22T03:57:30;100181.59;;;4.79;100.00
61742;BME280;47650;49.848;9.620;2024-03-22T03:59:55;100182.06;;;4.85;100.00
61742;BME280;47650;49.848;9.620;2024-03-22T04:02:20;100172.78;;;4.80;100.00
61742;BME280;47650;49.848;9.620;2024-03-22T04:04:46;100149.72;;;4.56;100.00
61742;BME280;47650;49.848;9.620;2024-03-22T04:07:11;100180.28;;;4.71;100.00
61742;BME280;47650;49.848;9.620;2024-03-22T04:09:36;100179.94;;;4.78;100.00
61742;BME280;47650;49.848;9.620;2024-03-22T04:12:02;100175.44;;;4.80;100.00
61742;BME280;47650;49.848;9.620;2024-03-22T04:14:27;100171.84;;;4.81;100.00
61742;BME280;47650;49.848;9.620;2024-03-22T04:16:54;100177.09;;;4.81;100.00
61742;BME280;47650;49.848;9.620;2024-03-22T04:19:22;100172.63;;;4.83;100.00
61742;BME280;47650;49.848;9.620;2024-03-22T04:21:49;100175.25;;;4.83;100.00
61742;BME280;47650;49.848;9.620;2024-03-22T04:24:15;100181.69;;;4.77;100.00
61742;BME280;47650;49.848;9.620;2024-03-22T04:26:40;100185.84;;;4.81;100.00
61742;BME280;47650;49.848;9.620;2024-03-22T04:29:05;100166.81;;;4.78;100.00
61742;BME280;47650;49.848;9.620;2024-03-22T04:31:31;100154.22;;;4.68;100.00
61742;BME280;47650;49.848;9.620;2024-03-22T04:33:56;100174.69;;;4.78;100.00
61742;BME280;47650;49.848;9.620;2024-03-22T04:36:22;100173.63;;;4.80;100.00
61742;BME280;47650;49.848;9.620;2024-03-22T04:38:48;100111.16;;;4.42;100.00
61742;BME280;47650;49.848;9.620;2024-03-22T04:41:13;100173.44;;;4.83;100.00
61742;BME280;47650;49.848;9.620;2024-03-22T04:43:38;100154.41;;;4.80;100.00
61742;BME280;47650;49.848;9.620;2024-03-22T04:46:04;100166.03;;;4.90;100.00
61742;BME280;47650;49.848;9.620;2024-03-22T04:48:29;100156.25;;;4.92;100.00
61742;BME280;47650;49.848;9.620;2024-03-22T04:50:56;100153.56;;;4.94;100.00
61742;BME280;47650;49.848;9.620;2024-03-22T04:53:22;100159.06;;;5.03;100.00
61742;BME280;47650;49.848;9.620;2024-03-22T04:55:48;100149.22;;;5.07;100.00
61742;BME280;47650;49.848;9.620;2024-03-22T04:58:16;100079.19;;;4.64;100.00
61742;BME280;47650;49.848;9.620;2024-03-22T05:00:42;100153.78;;;5.03;100.00
61742;BME280;47650;49.848;9.620;2024-03-22T05:03:10;100156.63;;;5.00;100.00
61742;BME280;47650;49.848;9.620;2024-03-22T05:05:38;100135.53;;;4.73;100.00
61742;BME280;47650;49.848;9.620;2024-03-22T05:08:05;100143.16;;;4.78;100.00
61742;BME280;47650;49.848;9.620;2024-03-22T05:10:30;100161.63;;;4.90;100.00
61742;BME280;47650;49.848;9.620;2024-03-22T05:12:57;100156.72;;;4.84;100.00
61742;BME280;47650;49.848;9.620;2024-03-22T05:15:24;100143.91;;;4.80;100.00
61742;BME280;47650;49.848;9.620;2024-03-22T05:17:53;100126.91;;;4.57;100.00
61742;BME280;47650;49.848;9.620;2024-03-22T05:20:20;100162.66;;;4.74;100.00
61742;BME280;47650;49.848;9.620;2024-03-22T05:22:48;100103.78;;;4.35;100.00
61742;BME280;47650;49.848;9.620;2024-03-22T05:25:13;100153.28;;;4.69;100.00
61742;BME280;47650;49.848;9.620;2024-03-22T05:27:41;100159.47;;;4.68;100.00
61742;BME280;47650;49.848;9.620;2024-03-22T05:30:07;100165.59;;;4.69;100.00
61742;BME280;47650;49.848;9.620;2024-03-22T05:32:35;100146.50;;;4.65;100.00
61742;BME280;47650;49.848;9.620;2024-03-22T05:35:00;100164.34;;;4.75;100.00
61742;BME280;47650;49.848;9.620;2024-03-22T05:37:25;100153.44;;;4.81;100.00
61742;BME280;47650;49.848;9.620;2024-03-22T05:39:51;100149.31;;;4.91;100.00
61742;BME280;47650;49.848;9.620;2024-03-22T05:42:16;100146.88;;;5.02;100.00
61742;BME280;47650;49.848;9.620;2024-03-22T05:44:47;100137.28;;;5.16;100.00
61742;BME280;47650;49.848;9.620;2024-03-22T05:47:13;100130.38;;;5.27;100.00
61742;BME280;47650;49.848;9.620;2024-03-22T05:49:39;100123.97;;;5.32;100.00
61742;BME280;47650;49.848;9.620;2024-03-22T05:52:05;100110.84;;;5.32;100.00
61742;BME280;47650;49.848;9.620;2024-03-22T05:54:31;100135.09;;;5.50;100.00
61742;BME280;47650;49.848;9.620;2024-03-22T05:56:58;100061.78;;;5.18;100.00
61742;BME280;47650;49.848;9.620;2024-03-22T05:59:31;100096.59;;;5.49;100.00
61742;BME280;47650;49.848;9.620;2024-03-22T06:01:57;100116.00;;;5.73;100.00
61742;BME280;47650;49.848;9.620;2024-03-22T06:04:22;100122.34;;;5.83;100.00
61742;BME280;47650;49.848;9.620;2024-03-22T06:06:50;100100.56;;;5.81;100.00
61742;BME280;47650;49.848;9.620;2024-03-22T06:09:15;100098.88;;;5.93;100.00
61742;BME280;47650;49.848;9.620;2024-03-22T06:11:49;100111.47;;;6.15;100.00
61742;BME280;47650;49.848;9.620;2024-03-22T06:14:15;100115.28;;;6.37;100.00
61742;BME280;47650;49.848;9.620;2024-03-22T06:16:40;100096.50;;;6.54;100.00
61742;BME280;47650;49.848;9.620;2024-03-22T06:19:05;100111.84;;;6.73;100.00
61742;BME280;47650;49.848;9.620;2024-03-22T06:21:31;100097.69;;;6.87;100.00
61742;BME280;47650;49.848;9.620;2024-03-22T06:23:56;100082.44;;;7.04;100.00
61742;BME280;47650;49.848;9.620;2024-03-22T06:26:21;100093.28;;;7.36;100.00
61742;BME280;47650;49.848;9.620;2024-03-22T06:28:48;100096.13;;;7.57;100.00
61742;BME280;47650;49.848;9.620;2024-03-22T06:31:13;100091.63;;;7.70;97.74
61742;BME280;47650;49.848;9.620;2024-03-22T06:33:38;100084.34;;;7.85;98.48
61742;BME280;47650;49.848;9.620;2024-03-22T06:36:05;100076.59;;;8.06;96.84
61742;BME280;47650;49.848;9.620;2024-03-22T06:38:31;100014.03;;;7.84;94.72
61742;BME280;47650;49.848;9.620;2024-03-22T06:40:56;100077.34;;;8.42;93.85
61742;BME280;47650;49.848;9.620;2024-03-22T06:43:27;100069.91;;;8.59;94.54
61742;BME280;47650;49.848;9.620;2024-03-22T06:45:59;100070.50;;;8.74;94.20
61742;BME280;47650;49.848;9.620;2024-03-22T06:48:25;100064.50;;;8.83;92.59
61742;BME280;47650;49.848;9.620;2024-03-22T06:50:51;100054.97;;;8.92;91.93
61742;BME280;47650;49.848;9.620;2024-03-22T06:53:17;100051.81;;;8.98;90.60
61742;BME280;47650;49.848;9.620;2024-03-22T06:55:42;100062.75;;;9.04;91.58
61742;BME280;47650;49.848;9.620;2024-03-22T06:58:07;100056.72;;;9.14;92.81
61742;BME280;47650;49.848;9.620;2024-03-22T07:00:38;100047.66;;;9.28;91.23
61742;BME280;47650;49.848;9.620;2024-03-22T07:03:03;100048.72;;;9.57;88.95
61742;BME280;47650;49.848;9.620;2024-03-22T07:05:30;100040.16;;;9.86;88.25
61742;BME280;47650;49.848;9.620;2024-03-22T07:07:55;100055.75;;;9.89;87.97
61742;BME280;47650;49.848;9.620;2024-03-22T07:10:23;100046.97;;;9.47;88.19
61742;BME280;47650;49.848;9.620;2024-03-22T07:12:53;100032.88;;;9.46;91.34
61742;BME280;47650;49.848;9.620;2024-03-22T07:15:19;100024.00;;;9.68;93.24
61742;BME280;47650;49.848;9.620;2024-03-22T07:17:44;99980.47;;;9.61;91.34
61742;BME280;47650;49.848;9.620;2024-03-22T07:20:10;100033.38;;;10.03;89.40
61742;BME280;47650;49.848;9.620;2024-03-22T07:22:35;100031.44;;;10.05;88.97
61742;BME280;47650;49.848;9.620;2024-03-22T07:25:01;100031.50;;;10.15;87.73
61742;BME280;47650;49.848;9.620;2024-03-22T07:27:27;99988.47;;;10.02;87.50
61742;BME280;47650;49.848;9.620;2024-03-22T07:29:54;100034.53;;;10.31;87.60
61742;BME280;47650;49.848;9.620;2024-03-22T07:32:20;100028.47;;;10.29;87.02
61742;BME280;47650;49.848;9.620;2024-03-22T07:34:48;100007.84;;;10.23;86.50
61742;BME280;47650;49.848;9.620;2024-03-22T07:37:19;100002.78;;;10.20;87.75
61742;BME280;47650;49.848;9.620;2024-03-22T07:39:45;100021.53;;;10.28;88.80
61742;BME280;47650;49.848;9.620;2024-03-22T07:42:11;100019.34;;;10.33;87.88
61742;BME280;47650;49.848;9.620;2024-03-22T07:44:37;100006.78;;;10.35;87.70
61742;BME280;47650;49.848;9.620;2024-03-22T07:47:02;100019.34;;;10.43;87.94
61742;BME280;47650;49.848;9.620;2024-03-22T07:49:28;100013.69;;;10.58;88.57
61742;BME280;47650;49.848;9.620;2024-03-22T07:51:54;100007.03;;;10.73;87.29
61742;BME280;47650;49.848;9.620;2024-03-22T07:54:19;100012.81;;;11.07;86.53
61742;BME280;47650;49.848;9.620;2024-03-22T07:56:47;100012.13;;;11.25;83.90
61742;BME280;47650;49.848;9.620;2024-03-22T07:59:12;99986.94;;;11.48;83.07
61742;BME280;47650;49.848;9.620;2024-03-22T08:01:39;100009.09;;;12.06;80.25
61742;BME280;47650;49.848;9.620;2024-03-22T08:04:05;99986.72;;;12.27;77.84
61742;BME280;47650;49.848;9.620;2024-03-22T08:06:31;99995.06;;;12.87;77.85
61742;BME280;47650;49.848;9.620;2024-03-22T08:08:56;99986.84;;;13.16;73.88
61742;BME280;47650;49.848;9.620;2024-03-22T08:11:21;99990.63;;;11.85;78.68
61742;BME280;47650;49.848;9.620;2024-03-22T08:13:47;99981.06;;;12.85;73.68
61742;BME280;47650;49.848;9.620;2024-03-22T08:16:12;99972.28;;;12.39;76.81
61742;BME280;47650;49.848;9.620;2024-03-22T08:18:37;99963.03;;;13.51;72.30
61742;BME280;47650;49.848;9.620;2024-03-22T08:21:03;99954.34;;;15.36;64.24
61742;BME280;47650;49.848;9.620;2024-03-22T08:23:28;99964.69;;;14.39;65.75
61742;BME280;47650;49.848;9.620;2024-03-22T08:25:54;99966.75;;;14.19;65.09
61742;BME280;47650;49.848;9.620;2024-03-22T08:28:19;99964.03;;;15.20;62.91
61742;BME280;47650;49.848;9.620;2024-03-22T08:30:52;99924.13;;;17.02;56.99
61742;BME280;47650;49.848;9.620;2024-03-22T08:33:18;99934.00;;;18.07;51.83
61742;BME280;47650;49.848;9.620;2024-03-22T08:35:43;99902.28;;;17.28;51.84
61742;BME280;47650;49.848;9.620;2024-03-22T08:38:13;99934.44;;;16.19;56.42
61742;BME280;47650;49.848;9.620;2024-03-22T08:40:40;99897.84;;;15.55;60.53
61742;BME280;47650;49.848;9.620;2024-03-22T08:43:06;99939.66;;;15.23;64.98
61742;BME280;47650;49.848;9.620;2024-03-22T08:45:33;99942.75;;;14.10;72.07
61742;BME280;47650;49.848;9.620;2024-03-22T08:47:58;99914.31;;;14.36;71.56
61742;BME280;47650;49.848;9.620;2024-03-22T08:50:25;99935.63;;;14.95;68.94
61742;BME280;47650;49.848;9.620;2024-03-22T08:52:50;99931.88;;;15.94;65.91
61742;BME280;47650;49.848;9.620;2024-03-22T08:55:16;99922.94;;;16.50;59.95
61742;BME280;47650;49.848;9.620;2024-03-22T08:57:43;99925.16;;;16.38;59.41
61742;BME280;47650;49.848;9.620;2024-03-22T09:00:09;99904.09;;;16.04;59.90
61742;BME280;47650;49.848;9.620;2024-03-22T09:02:36;99901.81;;;16.55;57.50
61742;BME280;47650;49.848;9.620;2024-03-22T09:05:04;99896.00;;;16.51;57.30
61742;BME280;47650;49.848;9.620;2024-03-22T09:07:30;99919.13;;;16.05;57.89
61742;BME280;47650;49.848;9.620;2024-03-22T09:09:55;99895.81;;;15.74;59.44
61742;BME280;47650;49.848;9.620;2024-03-22T09:12:29;99902.53;;;15.53;61.64
61742;BME280;47650;49.848;9.620;2024-03-22T09:14:54;99900.16;;;15.83;61.40
61742;BME280;47650;49.848;9.620;2024-03-22T09:17:19;99853.03;;;15.74;61.18
61742;BME280;47650;49.848;9.620;2024-03-22T09:19:44;99885.28;;;16.20;58.18
61742;BME280;47650;49.848;9.620;2024-03-22T09:22:11;99882.19;;;16.63;55.52
61742;BME280;47650;49.848;9.620;2024-03-22T09:24:36;99871.91;;;17.36;54.73
61742;BME280;47650;49.848;9.620;2024-03-22T09:27:01;99864.38;;;17.01;54.36
61742;BME280;47650;49.848;9.620;2024-03-22T09:29:29;99823.38;;;17.16;52.52
61742;BME280;47650;49.848;9.620;2024-03-22T09:31:55;99861.78;;;17.08;52.11
61742;BME280;47650;49.848;9.620;2024-03-22T09:34:20;99856.97;;;17.03;53.67
61742;BME280;47650;49.848;9.620;2024-03-22T09:36:46;99847.59;;;17.37;51.87
61742;BME280;47650;49.848;9.620;2024-03-22T09:39:13;99851.44;;;17.20;52.39
61742;BME280;47650;49.848;9.620;2024-03-22T09:41:43;99814.22;;;17.10;52.08
61742;BME280;47650;49.848;9.620;2024-03-22T09:44:13;99837.97;;;17.28;52.08
61742;BME280;47650;49.848;9.620;2024-03-22T09:46:40;99843.06;;;17.38;51.36
61742;BME280;47650;49.848;9.620;2024-03-22T09:49:06;99833.22;;;18.19;49.03
61742;BME280;47650;49.848;9.620;2024-03-22T09:51:33;99846.72;;;19.12;46.94
61742;BME280;47650;49.848;9.620;2024-03-22T09:54:00;99808.72;;;19.22;45.71
61742;BME280;47650;49.848;9.620;2024-03-22T09:56:27;99773.81;;;18.94;45.17
61742;BME280;47650;49.848;9.620;2024-03-22T09:58:54;99802.66;;;19.07;45.47
61742;BME280;47650;49.848;9.620;2024-03-22T10:01:19;99830.56;;;18.63;45.64
61742;BME280;47650;49.848;9.620;2024-03-22T10:03:45;99802.94;;;19.25;44.14
61742;BME280;47650;49.848;9.620;2024-03-22T10:06:10;99821.41;;;19.70;44.10
61742;BME280;47650;49.848;9.620;2024-03-22T10:08:36;99814.94;;;18.73;45.31
61742;BME280;47650;49.848;9.620;2024-03-22T10:11:02;99796.31;;;18.71;45.94
61742;BME280;47650;49.848;9.620;2024-03-22T10:13:28;99802.84;;;17.53;48.82
61742;BME280;47650;49.848;9.620;2024-03-22T10:15:56;99801.94;;;17.16;53.62
61742;BME280;47650;49.848;9.620;2024-03-22T10:18:21;99824.25;;;16.70;54.46
61742;BME280;47650;49.848;9.620;2024-03-22T10:20:47;99829.81;;;16.14;58.68
61742;BME280;47650;49.848;9.620;2024-03-22T10:23:14;99810.97;;;15.76;63.60
61742;BME280;47650;49.848;9.620;2024-03-22T10:25:39;99794.59;;;15.23;64.70
61742;BME280;47650;49.848;9.620;2024-03-22T10:28:05;99836.19;;;14.84;68.00
61742;BME280;47650;49.848;9.620;2024-03-22T10:30:34;99827.50;;;14.99;71.55
61742;BME280;47650;49.848;9.620;2024-03-22T10:33:01;99827.00;;;15.03;70.43
61742;BME280;47650;49.848;9.620;2024-03-22T10:35:28;99811.50;;;14.91;73.50
61742;BME280;47650;49.848;9.620;2024-03-22T10:37:55;99781.25;;;15.15;74.96
61742;BME280;47650;49.848;9.620;2024-03-22T10:40:20;99818.47;;;15.25;72.55
61742;BME280;47650;49.848;9.620;2024-03-22T10:42:45;99807.41;;;15.36;70.67
61742;BME280;47650;49.848;9.620;2024-03-22T10:45:12;99807.59;;;16.36;71.53
61742;BME280;47650;49.848;9.620;2024-03-22T10:47:39;99787.22;;;17.71;66.01
61742;BME280;47650;49.848;9.620;2024-03-22T10:50:11;99762.28;;;18.07;59.11
61742;BME280;47650;49.848;9.620;2024-03-22T10:52:43;99770.41;;;19.90;56.05
61742;BME280;47650;49.848;9.620;2024-03-22T10:55:25;99757.81;;;20.04;48.83
61742;BME280;47650;49.848;9.620;2024-03-22T10:57:55;99740.91;;;20.70;46.79
61742;BME280;47650;49.848;9.620;2024-03-22T11:00:31;99744.22;;;20.92;45.72
61742;BME280;47650;49.848;9.620;2024-03-22T11:02:59;99725.56;;;20.77;48.18
61742;BME280;47650;49.848;9.620;2024-03-22T11:05:26;99723.28;;;21.59;43.46
61742;BME280;47650;49.848;9.620;2024-03-22T11:08:04;99732.19;;;20.81;45.30
61742;BME280;47650;49.848;9.620;2024-03-22T11:10:33;99745.63;;;18.83;49.51
61742;BME280;47650;49.848;9.620;2024-03-22T11:13:06;99724.63;;;19.77;48.28
61742;BME280;47650;49.848;9.620;2024-03-22T11:15:33;99709.38;;;20.17;48.42
61742;BME280;47650;49.848;9.620;2024-03-22T11:17:59;99717.28;;;20.65;46.13
61742;BME280;47650;49.848;9.620;2024-03-22T11:20:25;99720.25;;;19.76;46.42
61742;BME280;47650;49.848;9.620;2024-03-22T11:22:52;99711.03;;;19.02;47.38
61742;BME280;47650;49.848;9.620;2024-03-22T11:25:18;99703.00;;;18.80;49.77
61742;BME280;47650;49.848;9.620;2024-03-22T11:27:46;99652.41;;;19.87;45.89
61742;BME280;47650;49.848;9.620;2024-03-22T11:30:11;99683.19;;;19.64;46.73
61742;BME280;47650;49.848;9.620;2024-03-22T11:32:37;99683.31;;;20.64;43.14
61742;BME280;47650;49.848;9.620;2024-03-22T11:35:10;99675.50;;;21.21;42.40
61742;BME280;47650;49.848;9.620;2024-03-22T11:37:38;99674.59;;;21.79;40.43
61742;BME280;47650;49.848;9.620;2024-03-22T11:40:03;99539.69;;;21.09;40.74
61742;BME280;47650;49.848;9.620;2024-03-22T11:42:32;99670.09;;;21.21;40.95
61742;BME280;47650;49.848;9.620;2024-03-22T11:44:57;99626.88;;;21.35;40.84
61742;BME280;47650;49.848;9.620;2024-03-22T11:47:23;99652.00;;;20.57;41.75
61742;BME280;47650;49.848;9.620;2024-03-22T11:49:50;99594.25;;;20.13;42.17
61742;BME280;47650;49.848;9.620;2024-03-22T11:52:15;99656.75;;;20.48;42.07
61742;BME280;47650;49.848;9.620;2024-03-22T11:54:42;99624.63;;;19.05;43.41
61742;BME280;47650;49.848;9.620;2024-03-22T11:57:09;99662.81;;;18.65;44.06
61742;BME280;47650;49.848;9.620;2024-03-22T11:59:34;99658.28;;;18.37;43.72
61742;BME280;47650;49.848;9.620;2024-03-22T12:02:01;99659.19;;;19.08;43.84
61742;BME280;47650;49.848;9.620;2024-03-22T12:04:27;99613.41;;;19.43;40.89
61742;BME280;47650;49.848;9.620;2024-03-22T12:06:55;99614.00;;;19.31;42.43
61742;BME280;47650;49.848;9.620;2024-03-22T12:09:22;99632.16;;;20.04;40.45
61742;BME280;47650;49.848;9.620;2024-03-22T12:11:49;99636.78;;;19.42;41.43
61742;BME280;47650;49.848;9.620;2024-03-22T12:14:15;99618.53;;;21.04;39.39
61742;BME280;47650;49.848;9.620;2024-03-22T12:16:40;99609.00;;;22.04;36.64
61742;BME280;47650;49.848;9.620;2024-03-22T12:19:05;99600.34;;;21.95;36.17
61742;BME280;47650;49.848;9.620;2024-03-22T12:21:31;99579.19;;;21.67;35.63
61742;BME280;47650;49.848;9.620;2024-03-22T12:23:57;99609.16;;;22.97;34.70
61742;BME280;47650;49.848;9.620;2024-03-22T12:26:22;99599.59;;;21.18;36.05
61742;BME280;47650;49.848;9.620;2024-03-22T12:28:48;99575.53;;;22.12;34.99
61742;BME280;47650;49.848;9.620;2024-03-22T12:31:13;99562.16;;;21.73;35.29
61742;BME280;47650;49.848;9.620;2024-03-22T12:33:38;99583.38;;;20.79;36.89
61742;BME280;47650;49.848;9.620;2024-03-22T12:36:04;99580.03;;;21.93;36.16
61742;BME280;47650;49.848;9.620;2024-03-22T12:38:29;99565.19;;;21.45;35.63
61742;BME280;47650;49.848;9.620;2024-03-22T12:40:57;99540.69;;;21.53;35.18
61742;BME280;47650;49.848;9.620;2024-03-22T12:43:28;99568.53;;;21.47;35.50
61742;BME280;47650;49.848;9.620;2024-03-22T12:45:53;99543.13;;;20.06;37.43
61742;BME280;47650;49.848;9.620;2024-03-22T12:48:24;99562.38;;;20.23;37.82
61742;BME280;47650;49.848;9.620;2024-03-22T12:50:50;99545.97;;;20.31;37.40